Jette Viking Hv77 — 5QEP — position and weather

sailwx.info

Track history (hours):
 
Tides and Currents Weather Stations Pressure Air Temp Water Temp Dewpoint Dewpoint Depression Visibility Wind Speed Wind Dir Waves Ship Positions

Jette Viking Hv77

Last reported at 2017-May-23 18:30 UTC. Time now 2017-May-23 18:45 UTC.
Position N 57°27' E 010°41'.

Length 16 m.

Type: Fishing. MMSI: 220046000.

Date/timePositionNaut miles runAvg speedWind from/ knotsBaromVisibWave heightAir tempDewpointWater temp
2017-May-23 18:30N 57°27' E 010°41'4 7.2
2017-May-23 17:59N 57°29' E 010°36'3 5.8
2017-May-23 17:29N 57°30' E 010°30'0 0.0
2017-May-23 16:59N 57°30' E 010°30'0 0.0
2017-May-23 16:30N 57°30' E 010°30'0 0.0
2017-May-23 15:58N 57°30' E 010°30'0 0.0
2017-May-23 15:29N 57°30' E 010°30'0 0.0
2017-May-23 14:59N 57°30' E 010°30'0 0.0
2017-May-23 14:30N 57°30' E 010°30'0 0.0
2017-May-23 13:29N 57°30' E 010°30'0 0.0
2017-May-23 12:58N 57°30' E 010°30'0 0.0
2017-May-23 12:30N 57°30' E 010°30'0 0.0
2017-May-23 11:34N 57°30' E 010°30'0 0.0
2017-May-23 11:28N 57°30' E 010°30'0 0.0
2017-May-23 10:58N 57°30' E 010°30'0 0.0
2017-May-23 10:30N 57°30' E 010°30'0 0.0
2017-May-23 10:00N 57°30' E 010°30'0 0.0
2017-May-23 09:30N 57°30' E 010°30'0 0.0
2017-May-23 08:56N 57°30' E 010°30'0 0.0
2017-May-23 08:21N 57°30' E 010°30'0 0.0
2017-May-23 07:57N 57°30' E 010°30'0 0.0
2017-May-23 07:23N 57°30' E 010°30'0 0.0
2017-May-23 04:43N 57°30' E 010°30'3 3.0
2017-May-23 03:36N 57°29' E 010°37'3 6.5
2017-May-23 03:11N 57°27' E 010°41'1 6.6
2017-May-23 03:00N 57°27' E 010°43'2 3.0
2017-May-23 02:30N 57°26' E 010°45'1 2.6
2017-May-23 02:00N 57°27' E 010°46'1 2.6
2017-May-23 01:30N 57°29' E 010°45'1 2.6
2017-May-23 01:00N 57°30' E 010°46'3 2.5
2017-May-22 23:54N 57°33' E 010°47'1 2.6
2017-May-22 23:27N 57°34' E 010°47'1 2.7
2017-May-22 23:00N 57°35' E 010°46'0 0.7
2017-May-22 22:29N 57°35' E 010°46'1 2.5
2017-May-22 22:00N 57°33' E 010°46'1 2.5
2017-May-22 21:28N 57°32' E 010°46'1 2.5
2017-May-22 21:00N 57°31' E 010°46'1 2.5
2017-May-22 20:30N 57°30' E 010°46'1 2.6
2017-May-22 20:00N 57°28' E 010°46'1 2.7
2017-May-22 19:30N 57°27' E 010°46'2 3.1
2017-May-22 19:00N 57°26' E 010°45'5 6.5
2017-May-22 18:16N 57°28' E 010°38'2 6.5
2017-May-22 18:00N 57°29' E 010°35'2 5.1
2017-May-22 17:30N 57°30' E 010°30'0 0.0
2017-May-22 16:54N 57°30' E 010°30'0 0.0
2017-May-22 15:32N 57°30' E 010°30'0 0.0
2017-May-22 15:27N 57°30' E 010°30'0 0.0
2017-May-22 14:39N 57°30' E 010°30'0 0.0
2017-May-22 13:53N 57°30' E 010°30'0 0.0
2017-May-22 13:29N 57°30' E 010°30'0 0.0
2017-May-22 13:00N 57°30' E 010°30'0 0.0
2017-May-22 12:18N 57°30' E 010°30'0 0.0
2017-May-22 11:28N 57°30' E 010°30'0 0.0
2017-May-22 10:42N 57°30' E 010°30'0 0.0
2017-May-22 10:19N 57°30' E 010°30'0 0.0
2017-May-22 10:00N 57°30' E 010°30'0 0.0
2017-May-22 09:30N 57°30' E 010°30'0 0.0
2017-May-22 09:01N 57°30' E 010°30'0 0.0
2017-May-22 08:01N 57°30' E 010°30'0 0.0
2017-May-22 08:00N 57°30' E 010°30'0 0.0
2017-May-22 07:17N 57°30' E 010°30'0 0.0
2017-May-22 07:00N 57°30' E 010°30'0 0.0
2017-May-22 06:30N 57°30' E 010°30'0 0.0
2017-May-22 06:00N 57°30' E 010°30'0 0.0
2017-May-22 05:30N 57°30' E 010°30'0 0.0
2017-May-22 05:00N 57°30' E 010°30'1 2.5
2017-May-22 04:29N 57°30' E 010°33'3 5.2
2017-May-22 03:58N 57°29' E 010°37'3 5.8
2017-May-22 03:30N 57°28' E 010°42'2 4.8
2017-May-22 02:59N 57°28' E 010°47'5 2.2
2017-May-22 00:32N 57°33' E 010°46'2 2.6
2017-May-21 23:44N 57°35' E 010°46'1 2.6
2017-May-21 23:29N 57°36' E 010°46'1 2.2
2017-May-21 22:59N 57°37' E 010°46'1 1.7
2017-May-21 22:29N 57°36' E 010°46'1 2.6
2017-May-21 21:59N 57°35' E 010°47'1 2.5
2017-May-21 21:29N 57°33' E 010°47'1 2.6
2017-May-21 21:00N 57°32' E 010°47'1 2.5
2017-May-21 20:30N 57°31' E 010°46'1 2.5
2017-May-21 20:00N 57°30' E 010°46'1 2.5
2017-May-21 19:30N 57°28' E 010°46'1 2.8
2017-May-21 19:00N 57°27' E 010°44'3 6.4
2017-May-21 18:30N 57°28' E 010°39'3 5.9
2017-May-21 18:00N 57°29' E 010°33'2 3.1
2017-May-21 17:28N 57°30' E 010°30'0 0.0
2017-May-21 16:54N 57°30' E 010°30'0 0.0
2017-May-21 05:26N 57°30' E 010°30'0 0.0
2017-May-21 04:55N 57°30' E 010°30'0 0.0
2017-May-21 04:29N 57°30' E 010°30'0 0.0
2017-May-21 03:58N 57°30' E 010°30'0 0.0
2017-May-21 01:07N 57°30' E 010°30'0 0.0
2017-May-21 00:59N 57°30' E 010°30'0 0.0
2017-May-21 00:26N 57°30' E 010°30'0 0.0
2017-May-20 07:47N 57°30' E 010°30'0 0.0
2017-May-20 07:28N 57°30' E 010°30'0 0.0
2017-May-20 07:00N 57°30' E 010°30'0 0.0
2017-May-20 06:30N 57°30' E 010°30'0 0.0
2017-May-20 06:00N 57°30' E 010°30'0 0.0
2017-May-20 05:30N 57°30' E 010°30'0 0.0
2017-May-20 05:00N 57°30' E 010°30'0 0.0
2017-May-20 04:30N 57°30' E 010°30'0 0.0
2017-May-20 04:00N 57°30' E 010°30'0 0.0
2017-May-20 03:30N 57°30' E 010°30'0 0.0
2017-May-20 02:52N 57°30' E 010°30'0 0.0
2017-May-20 02:30N 57°30' E 010°30'0 0.0
2017-May-20 01:58N 57°30' E 010°30'0 0.0
2017-May-20 01:27N 57°30' E 010°30'0 0.0
2017-May-20 00:24N 57°30' E 010°30'0 0.0
2017-May-19 23:58N 57°30' E 010°30'0 0.0
2017-May-19 23:30N 57°30' E 010°30'0 0.0
2017-May-19 22:57N 57°30' E 010°30'0 0.0
2017-May-19 21:48N 57°30' E 010°30'0 0.0
2017-May-19 21:25N 57°30' E 010°30'0 0.0
2017-May-19 21:00N 57°30' E 010°30'0 0.0
2017-May-19 20:30N 57°30' E 010°30'0 0.0
2017-May-19 20:00N 57°30' E 010°30'0 0.0
2017-May-19 19:30N 57°30' E 010°30'0 0.0
2017-May-19 19:00N 57°30' E 010°30'0 0.0
2017-May-19 18:30N 57°30' E 010°30'0 0.0
2017-May-19 18:00N 57°30' E 010°30'0 0.0
2017-May-19 17:30N 57°30' E 010°30'0 0.0
2017-May-19 16:59N 57°30' E 010°30'0 0.0
2017-May-19 16:30N 57°30' E 010°30'0 0.0
2017-May-19 16:00N 57°30' E 010°30'0 0.0
2017-May-19 15:30N 57°30' E 010°30'0 0.0
2017-May-19 15:00N 57°30' E 010°30'0 0.0
2017-May-19 14:01N 57°30' E 010°30'0 0.0
2017-May-19 13:30N 57°30' E 010°30'0 0.0
2017-May-19 13:00N 57°30' E 010°30'0 0.0
2017-May-19 12:30N 57°30' E 010°30'0 0.0
2017-May-19 12:00N 57°30' E 010°30'0 0.0
2017-May-19 11:30N 57°30' E 010°30'0 0.0
2017-May-19 11:00N 57°30' E 010°30'0 0.0
2017-May-19 10:30N 57°30' E 010°30'0 0.0
2017-May-19 10:00N 57°30' E 010°30'0 0.0
2017-May-19 09:30N 57°30' E 010°30'0 0.0
2017-May-19 09:00N 57°30' E 010°30'0 0.0
2017-May-19 08:30N 57°30' E 010°30'0 0.0
2017-May-19 08:00N 57°30' E 010°30'0 0.0
2017-May-19 07:19N 57°30' E 010°30'0 0.0
2017-May-19 07:00N 57°30' E 010°30'0 0.0
2017-May-19 06:30N 57°30' E 010°30'0 0.0
2017-May-19 05:58N 57°30' E 010°30'0 0.0
2017-May-19 05:29N 57°30' E 010°30'0 0.2
2017-May-19 04:50N 57°30' E 010°30'1 3.8
2017-May-19 04:29N 57°30' E 010°33'1 1.0
2017-May-19 03:50N 57°29' E 010°34'2 6.9
2017-May-19 03:30N 57°28' E 010°37'4 7.4
2017-May-19 03:00N 57°26' E 010°43'2 4.5
2017-May-19 02:30N 57°24' E 010°45'1 2.4
2017-May-19 01:54N 57°26' E 010°46'3 2.5
2017-May-19 00:49N 57°29' E 010°45'3 2.5
2017-May-18 23:24N 57°32' E 010°45'1 2.6
2017-May-18 22:57N 57°33' E 010°45'1 1.4
2017-May-18 22:30N 57°33' E 010°45'1 2.5
2017-May-18 22:00N 57°31' E 010°45'1 2.3
2017-May-18 21:30N 57°30' E 010°45'1 2.5
2017-May-18 21:00N 57°29' E 010°45'1 2.5
2017-May-18 20:29N 57°28' E 010°46'2 2.5
2017-May-18 19:44N 57°26' E 010°46'1 2.5
2017-May-18 19:26N 57°25' E 010°45'9 0.8
2017-May-18 07:16N 57°30' E 010°30'0 0.0
2017-May-18 06:59N 57°30' E 010°30'0 0.0
2017-May-18 06:30N 57°30' E 010°30'0 0.0
2017-May-18 05:59N 57°30' E 010°30'0 0.0
2017-May-18 05:25N 57°30' E 010°30'0 0.3
2017-May-18 04:58N 57°30' E 010°30'1 2.9
2017-May-18 04:30N 57°30' E 010°33'2 2.6
2017-May-18 03:44N 57°29' E 010°36'2 6.8
2017-May-18 03:30N 57°28' E 010°38'4 6.7
2017-May-18 02:56N 57°26' E 010°44'1 2.5
2017-May-18 02:27N 57°25' E 010°45'1 2.5
2017-May-18 02:00N 57°26' E 010°46'2 2.5
2017-May-18 01:24N 57°28' E 010°46'1 2.5
2017-May-18 01:00N 57°29' E 010°45'1 2.5
2017-May-18 00:29N 57°30' E 010°45'3 2.5
2017-May-17 23:23N 57°33' E 010°44'1 2.7
2017-May-17 23:00N 57°34' E 010°44'1 1.6
2017-May-17 22:22N 57°33' E 010°44'1 2.5
2017-May-17 21:59N 57°32' E 010°44'1 2.5
2017-May-17 21:30N 57°30' E 010°45'1 2.6
2017-May-17 21:00N 57°29' E 010°45'1 2.6
2017-May-17 20:30N 57°28' E 010°45'2 2.6
2017-May-17 19:54N 57°26' E 010°45'1 2.5
2017-May-17 19:27N 57°25' E 010°45'8 4.4
2017-May-17 17:41N 57°29' E 010°33'1 2.7
2017-May-17 17:09N 57°30' E 010°30'0 0.0
2017-May-17 16:59N 57°30' E 010°30'0 0.0
2017-May-16 05:29N 57°30' E 010°30'1 1.5
2017-May-16 04:49N 57°30' E 010°32'0 0.9
2017-May-16 04:26N 57°30' E 010°32'2 5.0
2017-May-16 04:00N 57°29' E 010°36'4 7.0
2017-May-16 03:30N 57°27' E 010°42'3 6.9
2017-May-16 03:01N 57°25' E 010°47'0 0.7
2017-May-16 02:30N 57°25' E 010°47'1 2.5
2017-May-16 02:00N 57°26' E 010°47'1 2.5
2017-May-16 01:30N 57°28' E 010°48'1 2.5
2017-May-16 01:00N 57°29' E 010°49'1 2.4
2017-May-16 00:30N 57°30' E 010°50'1 2.5
2017-May-16 00:00N 57°31' E 010°50'1 2.5
2017-May-15 23:30N 57°32' E 010°50'1 2.7
2017-May-15 23:00N 57°34' E 010°50'0 0.7
2017-May-15 22:30N 57°33' E 010°50'1 2.5
2017-May-15 22:00N 57°32' E 010°50'1 2.5
2017-May-15 21:30N 57°31' E 010°49'1 2.5
2017-May-15 21:00N 57°30' E 010°49'1 2.5
2017-May-15 20:31N 57°28' E 010°49'1 2.5
2017-May-15 20:00N 57°27' E 010°48'1 2.6
2017-May-15 19:30N 57°26' E 010°48'1 2.6
2017-May-15 19:00N 57°25' E 010°47'3 5.3
2017-May-15 18:30N 57°26' E 010°43'4 6.0
2017-May-15 17:55N 57°29' E 010°37'3 5.8
2017-May-15 17:27N 57°29' E 010°33'1 2.9
2017-May-15 16:59N 57°30' E 010°30'0 0.0
2017-May-15 15:09N 57°30' E 010°30'0 0.0
2017-May-15 07:04N 57°30' E 010°30'0 0.0
2017-May-15 07:00N 57°30' E 010°30'0 0.1
2017-May-15 05:23N 57°30' E 010°30'2 1.6
2017-May-15 04:14N 57°29' E 010°34'3 7.1
2017-May-15 03:46N 57°28' E 010°39'2 7.3
2017-May-15 03:28N 57°27' E 010°43'3 6.6
2017-May-15 03:00N 57°25' E 010°47'1 1.4
2017-May-15 02:30N 57°26' E 010°47'1 2.5
2017-May-15 02:00N 57°27' E 010°48'1 2.6
2017-May-15 01:30N 57°28' E 010°49'1 2.6
2017-May-15 01:00N 57°29' E 010°50'1 2.6
2017-May-15 00:29N 57°31' E 010°50'1 2.5
2017-May-14 23:54N 57°32' E 010°51'1 2.5
2017-May-14 23:30N 57°33' E 010°51'1 2.6
2017-May-14 22:57N 57°34' E 010°52'0 0.8
2017-May-14 22:30N 57°34' E 010°52'2 2.6
2017-May-14 21:54N 57°33' E 010°51'1 2.6
2017-May-14 21:30N 57°31' E 010°51'1 2.6
2017-May-14 21:00N 57°30' E 010°50'1 2.6
2017-May-14 20:30N 57°29' E 010°49'2 2.5
2017-May-14 19:42N 57°27' E 010°48'1 2.5
2017-May-14 19:28N 57°27' E 010°48'1 2.6
2017-May-14 18:59N 57°25' E 010°47'10 0.7
2017-May-14 05:43N 57°30' E 010°30'0 0.0
2017-May-14 05:28N 57°30' E 010°30'0 0.0
2017-May-14 04:59N 57°30' E 010°30'0 0.0
2017-May-14 04:30N 57°30' E 010°30'0 0.0
2017-May-14 03:59N 57°30' E 010°30'  
Track history (hours):
 
Tides and Currents Weather Stations Pressure Air Temp Water Temp Dewpoint Dewpoint Depression Visibility Wind Speed Wind Dir Waves Ship Positions

Jette Viking Hv77

Last reported at 2017-May-23 18:30 UTC. Time now 2017-May-23 18:45 UTC.
Position N 57°27' E 010°41'.

Length 16 m.

Type: Fishing. MMSI: 220046000.

Date/timePositionNaut miles runAvg speedWind from/ knotsBaromVisibWave heightAir tempDewpointWater temp
2017-May-23 18:30N 57°27' E 010°41'4 7.2
2017-May-23 17:59N 57°29' E 010°36'3 5.8
2017-May-23 17:29N 57°30' E 010°30'0 0.0
2017-May-23 16:59N 57°30' E 010°30'0 0.0
2017-May-23 16:30N 57°30' E 010°30'0 0.0
2017-May-23 15:58N 57°30' E 010°30'0 0.0
2017-May-23 15:29N 57°30' E 010°30'0 0.0
2017-May-23 14:59N 57°30' E 010°30'0 0.0
2017-May-23 14:30N 57°30' E 010°30'0 0.0
2017-May-23 13:29N 57°30' E 010°30'0 0.0
2017-May-23 12:58N 57°30' E 010°30'0 0.0
2017-May-23 12:30N 57°30' E 010°30'0 0.0
2017-May-23 11:34N 57°30' E 010°30'0 0.0
2017-May-23 11:28N 57°30' E 010°30'0 0.0
2017-May-23 10:58N 57°30' E 010°30'0 0.0
2017-May-23 10:30N 57°30' E 010°30'0 0.0
2017-May-23 10:00N 57°30' E 010°30'0 0.0
2017-May-23 09:30N 57°30' E 010°30'0 0.0
2017-May-23 08:56N 57°30' E 010°30'0 0.0
2017-May-23 08:21N 57°30' E 010°30'0 0.0
2017-May-23 07:57N 57°30' E 010°30'0 0.0
2017-May-23 07:23N 57°30' E 010°30'0 0.0
2017-May-23 04:43N 57°30' E 010°30'3 3.0
2017-May-23 03:36N 57°29' E 010°37'3 6.5
2017-May-23 03:11N 57°27' E 010°41'1 6.6
2017-May-23 03:00N 57°27' E 010°43'2 3.0
2017-May-23 02:30N 57°26' E 010°45'1 2.6
2017-May-23 02:00N 57°27' E 010°46'1 2.6
2017-May-23 01:30N 57°29' E 010°45'1 2.6
2017-May-23 01:00N 57°30' E 010°46'3 2.5
2017-May-22 23:54N 57°33' E 010°47'1 2.6
2017-May-22 23:27N 57°34' E 010°47'1 2.7
2017-May-22 23:00N 57°35' E 010°46'0 0.7
2017-May-22 22:29N 57°35' E 010°46'1 2.5
2017-May-22 22:00N 57°33' E 010°46'1 2.5
2017-May-22 21:28N 57°32' E 010°46'1 2.5
2017-May-22 21:00N 57°31' E 010°46'1 2.5
2017-May-22 20:30N 57°30' E 010°46'1 2.6
2017-May-22 20:00N 57°28' E 010°46'1 2.7
2017-May-22 19:30N 57°27' E 010°46'2 3.1
2017-May-22 19:00N 57°26' E 010°45'5 6.5
2017-May-22 18:16N 57°28' E 010°38'2 6.5
2017-May-22 18:00N 57°29' E 010°35'2 5.1
2017-May-22 17:30N 57°30' E 010°30'0 0.0
2017-May-22 16:54N 57°30' E 010°30'0 0.0
2017-May-22 15:32N 57°30' E 010°30'0 0.0
2017-May-22 15:27N 57°30' E 010°30'0 0.0
2017-May-22 14:39N 57°30' E 010°30'0 0.0
2017-May-22 13:53N 57°30' E 010°30'0 0.0
2017-May-22 13:29N 57°30' E 010°30'0 0.0
2017-May-22 13:00N 57°30' E 010°30'0 0.0
2017-May-22 12:18N 57°30' E 010°30'0 0.0
2017-May-22 11:28N 57°30' E 010°30'0 0.0
2017-May-22 10:42N 57°30' E 010°30'0 0.0
2017-May-22 10:19N 57°30' E 010°30'0 0.0
2017-May-22 10:00N 57°30' E 010°30'0 0.0
2017-May-22 09:30N 57°30' E 010°30'0 0.0
2017-May-22 09:01N 57°30' E 010°30'0 0.0
2017-May-22 08:01N 57°30' E 010°30'0 0.0
2017-May-22 08:00N 57°30' E 010°30'0 0.0
2017-May-22 07:17N 57°30' E 010°30'0 0.0
2017-May-22 07:00N 57°30' E 010°30'0 0.0
2017-May-22 06:30N 57°30' E 010°30'0 0.0
2017-May-22 06:00N 57°30' E 010°30'0 0.0
2017-May-22 05:30N 57°30' E 010°30'0 0.0
2017-May-22 05:00N 57°30' E 010°30'1 2.5
2017-May-22 04:29N 57°30' E 010°33'3 5.2
2017-May-22 03:58N 57°29' E 010°37'3 5.8
2017-May-22 03:30N 57°28' E 010°42'2 4.8
2017-May-22 02:59N 57°28' E 010°47'5 2.2
2017-May-22 00:32N 57°33' E 010°46'2 2.6
2017-May-21 23:44N 57°35' E 010°46'1 2.6
2017-May-21 23:29N 57°36' E 010°46'1 2.2
2017-May-21 22:59N 57°37' E 010°46'1 1.7
2017-May-21 22:29N 57°36' E 010°46'1 2.6
2017-May-21 21:59N 57°35' E 010°47'1 2.5
2017-May-21 21:29N 57°33' E 010°47'1 2.6
2017-May-21 21:00N 57°32' E 010°47'1 2.5
2017-May-21 20:30N 57°31' E 010°46'1 2.5
2017-May-21 20:00N 57°30' E 010°46'1 2.5
2017-May-21 19:30N 57°28' E 010°46'1 2.8
2017-May-21 19:00N 57°27' E 010°44'3 6.4
2017-May-21 18:30N 57°28' E 010°39'3 5.9
2017-May-21 18:00N 57°29' E 010°33'2 3.1
2017-May-21 17:28N 57°30' E 010°30'0 0.0
2017-May-21 16:54N 57°30' E 010°30'0 0.0
2017-May-21 05:26N 57°30' E 010°30'0 0.0
2017-May-21 04:55N 57°30' E 010°30'0 0.0
2017-May-21 04:29N 57°30' E 010°30'0 0.0
2017-May-21 03:58N 57°30' E 010°30'0 0.0
2017-May-21 01:07N 57°30' E 010°30'0 0.0
2017-May-21 00:59N 57°30' E 010°30'0 0.0
2017-May-21 00:26N 57°30' E 010°30'0 0.0
2017-May-20 07:47N 57°30' E 010°30'0 0.0
2017-May-20 07:28N 57°30' E 010°30'0 0.0
2017-May-20 07:00N 57°30' E 010°30'0 0.0
2017-May-20 06:30N 57°30' E 010°30'0 0.0
2017-May-20 06:00N 57°30' E 010°30'0 0.0
2017-May-20 05:30N 57°30' E 010°30'0 0.0
2017-May-20 05:00N 57°30' E 010°30'0 0.0
2017-May-20 04:30N 57°30' E 010°30'0 0.0
2017-May-20 04:00N 57°30' E 010°30'0 0.0
2017-May-20 03:30N 57°30' E 010°30'0 0.0
2017-May-20 02:52N 57°30' E 010°30'0 0.0
2017-May-20 02:30N 57°30' E 010°30'0 0.0
2017-May-20 01:58N 57°30' E 010°30'0 0.0
2017-May-20 01:27N 57°30' E 010°30'0 0.0
2017-May-20 00:24N 57°30' E 010°30'0 0.0
2017-May-19 23:58N 57°30' E 010°30'0 0.0
2017-May-19 23:30N 57°30' E 010°30'0 0.0
2017-May-19 22:57N 57°30' E 010°30'0 0.0
2017-May-19 21:48N 57°30' E 010°30'0 0.0
2017-May-19 21:25N 57°30' E 010°30'0 0.0
2017-May-19 21:00N 57°30' E 010°30'0 0.0
2017-May-19 20:30N 57°30' E 010°30'0 0.0
2017-May-19 20:00N 57°30' E 010°30'0 0.0
2017-May-19 19:30N 57°30' E 010°30'0 0.0
2017-May-19 19:00N 57°30' E 010°30'0 0.0
2017-May-19 18:30N 57°30' E 010°30'0 0.0
2017-May-19 18:00N 57°30' E 010°30'0 0.0
2017-May-19 17:30N 57°30' E 010°30'0 0.0
2017-May-19 16:59N 57°30' E 010°30'0 0.0
2017-May-19 16:30N 57°30' E 010°30'0 0.0
2017-May-19 16:00N 57°30' E 010°30'0 0.0
2017-May-19 15:30N 57°30' E 010°30'0 0.0
2017-May-19 15:00N 57°30' E 010°30'0 0.0
2017-May-19 14:01N 57°30' E 010°30'0 0.0
2017-May-19 13:30N 57°30' E 010°30'0 0.0
2017-May-19 13:00N 57°30' E 010°30'0 0.0
2017-May-19 12:30N 57°30' E 010°30'0 0.0
2017-May-19 12:00N 57°30' E 010°30'0 0.0
2017-May-19 11:30N 57°30' E 010°30'0 0.0
2017-May-19 11:00N 57°30' E 010°30'0 0.0
2017-May-19 10:30N 57°30' E 010°30'0 0.0
2017-May-19 10:00N 57°30' E 010°30'0 0.0
2017-May-19 09:30N 57°30' E 010°30'0 0.0
2017-May-19 09:00N 57°30' E 010°30'0 0.0
2017-May-19 08:30N 57°30' E 010°30'0 0.0
2017-May-19 08:00N 57°30' E 010°30'0 0.0
2017-May-19 07:19N 57°30' E 010°30'0 0.0
2017-May-19 07:00N 57°30' E 010°30'0 0.0
2017-May-19 06:30N 57°30' E 010°30'0 0.0
2017-May-19 05:58N 57°30' E 010°30'0 0.0
2017-May-19 05:29N 57°30' E 010°30'0 0.2
2017-May-19 04:50N 57°30' E 010°30'1 3.8
2017-May-19 04:29N 57°30' E 010°33'1 1.0
2017-May-19 03:50N 57°29' E 010°34'2 6.9
2017-May-19 03:30N 57°28' E 010°37'4 7.4
2017-May-19 03:00N 57°26' E 010°43'2 4.5
2017-May-19 02:30N 57°24' E 010°45'1 2.4
2017-May-19 01:54N 57°26' E 010°46'3 2.5
2017-May-19 00:49N 57°29' E 010°45'3 2.5
2017-May-18 23:24N 57°32' E 010°45'1 2.6
2017-May-18 22:57N 57°33' E 010°45'1 1.4
2017-May-18 22:30N 57°33' E 010°45'1 2.5
2017-May-18 22:00N 57°31' E 010°45'1 2.3
2017-May-18 21:30N 57°30' E 010°45'1 2.5
2017-May-18 21:00N 57°29' E 010°45'1 2.5
2017-May-18 20:29N 57°28' E 010°46'2 2.5
2017-May-18 19:44N 57°26' E 010°46'1 2.5
2017-May-18 19:26N 57°25' E 010°45'9 0.8
2017-May-18 07:16N 57°30' E 010°30'0 0.0
2017-May-18 06:59N 57°30' E 010°30'0 0.0
2017-May-18 06:30N 57°30' E 010°30'0 0.0
2017-May-18 05:59N 57°30' E 010°30'0 0.0
2017-May-18 05:25N 57°30' E 010°30'0 0.3
2017-May-18 04:58N 57°30' E 010°30'1 2.9
2017-May-18 04:30N 57°30' E 010°33'2 2.6
2017-May-18 03:44N 57°29' E 010°36'2 6.8
2017-May-18 03:30N 57°28' E 010°38'4 6.7
2017-May-18 02:56N 57°26' E 010°44'1 2.5
2017-May-18 02:27N 57°25' E 010°45'1 2.5
2017-May-18 02:00N 57°26' E 010°46'2 2.5
2017-May-18 01:24N 57°28' E 010°46'1 2.5
2017-May-18 01:00N 57°29' E 010°45'1 2.5
2017-May-18 00:29N 57°30' E 010°45'3 2.5
2017-May-17 23:23N 57°33' E 010°44'1 2.7
2017-May-17 23:00N 57°34' E 010°44'1 1.6
2017-May-17 22:22N 57°33' E 010°44'1 2.5
2017-May-17 21:59N 57°32' E 010°44'1 2.5
2017-May-17 21:30N 57°30' E 010°45'1 2.6
2017-May-17 21:00N 57°29' E 010°45'1 2.6
2017-May-17 20:30N 57°28' E 010°45'2 2.6
2017-May-17 19:54N 57°26' E 010°45'1 2.5
2017-May-17 19:27N 57°25' E 010°45'8 4.4
2017-May-17 17:41N 57°29' E 010°33'1 2.7
2017-May-17 17:09N 57°30' E 010°30'0 0.0
2017-May-17 16:59N 57°30' E 010°30'0 0.0
2017-May-16 05:29N 57°30' E 010°30'1 1.5
2017-May-16 04:49N 57°30' E 010°32'0 0.9
2017-May-16 04:26N 57°30' E 010°32'2 5.0
2017-May-16 04:00N 57°29' E 010°36'4 7.0
2017-May-16 03:30N 57°27' E 010°42'3 6.9
2017-May-16 03:01N 57°25' E 010°47'0 0.7
2017-May-16 02:30N 57°25' E 010°47'1 2.5
2017-May-16 02:00N 57°26' E 010°47'1 2.5
2017-May-16 01:30N 57°28' E 010°48'1 2.5
2017-May-16 01:00N 57°29' E 010°49'1 2.4
2017-May-16 00:30N 57°30' E 010°50'1 2.5
2017-May-16 00:00N 57°31' E 010°50'1 2.5
2017-May-15 23:30N 57°32' E 010°50'1 2.7
2017-May-15 23:00N 57°34' E 010°50'0 0.7
2017-May-15 22:30N 57°33' E 010°50'1 2.5
2017-May-15 22:00N 57°32' E 010°50'1 2.5
2017-May-15 21:30N 57°31' E 010°49'1 2.5
2017-May-15 21:00N 57°30' E 010°49'1 2.5
2017-May-15 20:31N 57°28' E 010°49'1 2.5
2017-May-15 20:00N 57°27' E 010°48'1 2.6
2017-May-15 19:30N 57°26' E 010°48'1 2.6
2017-May-15 19:00N 57°25' E 010°47'3 5.3
2017-May-15 18:30N 57°26' E 010°43'4 6.0
2017-May-15 17:55N 57°29' E 010°37'3 5.8
2017-May-15 17:27N 57°29' E 010°33'1 2.9
2017-May-15 16:59N 57°30' E 010°30'0 0.0
2017-May-15 15:09N 57°30' E 010°30'0 0.0
2017-May-15 07:04N 57°30' E 010°30'0 0.0
2017-May-15 07:00N 57°30' E 010°30'0 0.1
2017-May-15 05:23N 57°30' E 010°30'2 1.6
2017-May-15 04:14N 57°29' E 010°34'3 7.1
2017-May-15 03:46N 57°28' E 010°39'2 7.3
2017-May-15 03:28N 57°27' E 010°43'3 6.6
2017-May-15 03:00N 57°25' E 010°47'1 1.4
2017-May-15 02:30N 57°26' E 010°47'1 2.5
2017-May-15 02:00N 57°27' E 010°48'1 2.6
2017-May-15 01:30N 57°28' E 010°49'1 2.6
2017-May-15 01:00N 57°29' E 010°50'1 2.6
2017-May-15 00:29N 57°31' E 010°50'1 2.5
2017-May-14 23:54N 57°32' E 010°51'1 2.5
2017-May-14 23:30N 57°33' E 010°51'1 2.6
2017-May-14 22:57N 57°34' E 010°52'0 0.8
2017-May-14 22:30N 57°34' E 010°52'2 2.6
2017-May-14 21:54N 57°33' E 010°51'1 2.6
2017-May-14 21:30N 57°31' E 010°51'1 2.6
2017-May-14 21:00N 57°30' E 010°50'1 2.6
2017-May-14 20:30N 57°29' E 010°49'2 2.5
2017-May-14 19:42N 57°27' E 010°48'1 2.5
2017-May-14 19:28N 57°27' E 010°48'1 2.6
2017-May-14 18:59N 57°25' E 010°47'10 0.7
2017-May-14 05:43N 57°30' E 010°30'0 0.0
2017-May-14 05:28N 57°30' E 010°30'0 0.0
2017-May-14 04:59N 57°30' E 010°30'0 0.0
2017-May-14 04:30N 57°30' E 010°30'0 0.0
2017-May-14 03:59N 57°30' E 010°30'  

Dump ship's entire track history